createdAt,value
2023-04-29T00:02:26.117Z,95982.81
2023-04-29T00:04:55.377Z,95989.34
2023-04-29T00:07:23.927Z,95982.00
2023-04-29T00:09:53.203Z,95981.72
2023-04-29T00:12:21.679Z,95981.41
2023-04-29T00:14:49.921Z,95980.81
2023-04-29T00:17:19.540Z,95970.63
2023-04-29T00:19:48.183Z,95968.72
2023-04-29T00:22:16.472Z,95974.72
2023-04-29T00:24:44.706Z,95972.72
2023-04-29T00:27:13.720Z,95975.00
2023-04-29T00:29:42.004Z,95975.22
2023-04-29T00:32:10.302Z,95978.41
2023-04-29T00:34:39.834Z,95983.34
2023-04-29T00:37:08.064Z,95978.38
2023-04-29T00:39:36.332Z,95978.50
2023-04-29T00:42:04.776Z,95983.59
2023-04-29T00:44:33.041Z,95973.03
2023-04-29T00:47:01.250Z,95986.03
2023-04-29T00:49:30.001Z,95981.19
2023-04-29T00:52:00.571Z,95971.09
2023-04-29T00:57:11.588Z,95972.97
2023-04-29T00:59:39.997Z,95974.06
2023-04-29T01:02:08.210Z,95972.53
2023-04-29T01:10:56.186Z,95964.75
2023-04-29T01:13:30.784Z,95959.56
2023-04-29T01:16:03.646Z,95968.03
2023-04-29T01:18:35.110Z,95965.97
2023-04-29T01:21:03.658Z,95964.91
2023-04-29T01:23:33.186Z,95958.16
2023-04-29T01:26:01.472Z,95960.03
2023-04-29T01:28:42.250Z,95958.16
2023-04-29T01:31:17.218Z,95960.31
2023-04-29T01:33:49.898Z,95959.53
2023-04-29T01:36:24.372Z,95960.31
2023-04-29T01:39:01.595Z,95961.66
2023-04-29T01:41:37.195Z,95966.91
2023-04-29T01:44:06.094Z,95964.94
2023-04-29T01:46:34.542Z,95968.63
2023-04-29T01:49:03.164Z,95969.84
2023-04-29T01:51:32.208Z,95973.16
2023-04-29T01:54:01.781Z,95961.25
2023-04-29T01:56:29.948Z,95963.91
2023-04-29T01:58:58.130Z,95964.13
2023-04-29T02:01:26.337Z,95962.06
2023-04-29T02:03:54.778Z,95963.28
2023-04-29T02:06:24.579Z,95965.81
2023-04-29T02:08:52.758Z,95964.53
2023-04-29T02:11:22.432Z,95961.84
2023-04-29T02:13:50.676Z,95969.63
2023-04-29T02:16:19.052Z,95966.78
2023-04-29T02:18:47.422Z,95957.13
2023-04-29T02:21:15.878Z,95966.91
2023-04-29T02:23:44.146Z,95966.28
2023-04-29T02:26:14.009Z,95967.81
2023-04-29T02:28:44.284Z,95970.19
2023-04-29T02:31:12.543Z,95972.94
2023-04-29T02:33:41.390Z,95966.88
2023-04-29T02:36:09.711Z,95972.56
2023-04-29T02:38:37.945Z,95973.69
2023-04-29T02:41:06.405Z,95964.69
2023-04-29T02:43:34.843Z,95969.13
2023-04-29T02:46:04.831Z,95960.13
2023-04-29T02:48:33.208Z,95966.31
2023-04-29T02:51:01.449Z,95968.22
2023-04-29T02:53:29.698Z,95969.03
2023-04-29T02:55:58.251Z,95965.66
2023-04-29T02:58:27.292Z,95973.53
2023-04-29T03:00:55.609Z,95979.50
2023-04-29T03:03:25.422Z,95967.59
2023-04-29T03:05:53.718Z,95974.75
2023-04-29T03:08:22.289Z,95980.91
2023-04-29T03:10:50.553Z,95969.81
2023-04-29T03:13:18.824Z,95973.81
2023-04-29T03:15:47.271Z,95972.72
2023-04-29T03:18:15.580Z,95977.91
2023-04-29T03:20:45.229Z,95975.88
2023-04-29T03:23:13.505Z,95974.44
2023-04-29T03:25:41.783Z,95974.66
2023-04-29T03:28:10.122Z,95973.41
2023-04-29T03:30:38.406Z,95977.16
2023-04-29T03:33:06.733Z,95968.56
2023-04-29T03:35:35.064Z,95975.69
2023-04-29T03:38:04.632Z,95972.09
2023-04-29T03:40:32.904Z,95973.34
2023-04-29T03:43:01.528Z,95967.31
2023-04-29T03:45:29.807Z,95966.69
2023-04-29T03:47:58.075Z,95967.50
2023-04-29T03:50:26.641Z,95971.31
2023-04-29T03:52:54.922Z,95968.41
2023-04-29T03:55:24.512Z,95966.94
2023-04-29T03:57:52.809Z,95977.38
2023-04-29T04:00:21.732Z,95972.28
2023-04-29T04:02:50.270Z,95980.78
2023-04-29T04:05:19.555Z,95977.31
2023-04-29T04:07:47.918Z,95980.78
2023-04-29T04:10:16.294Z,95973.78
2023-04-29T04:12:45.894Z,95978.63
2023-04-29T04:15:14.265Z,95987.56
2023-04-29T04:17:42.556Z,95988.94
2023-04-29T04:20:11.830Z,95988.41
2023-04-29T04:22:40.142Z,95992.72
2023-04-29T04:25:09.740Z,95994.50
2023-04-29T04:27:38.071Z,95998.03
2023-04-29T04:30:09.317Z,95996.53
2023-04-29T04:32:37.786Z,96007.03
2023-04-29T04:35:07.053Z,96005.72
2023-04-29T04:37:35.283Z,96007.22
2023-04-29T04:40:03.666Z,96006.88
2023-04-29T04:42:31.971Z,96004.69
2023-04-29T04:45:00.259Z,96007.00
2023-04-29T04:47:29.869Z,95996.56
2023-04-29T04:49:58.162Z,96000.47
2023-04-29T04:52:26.386Z,96002.53
2023-04-29T04:54:54.625Z,96005.16
2023-04-29T04:57:22.912Z,96010.91
2023-04-29T04:59:51.419Z,96010.09
2023-04-29T05:02:20.049Z,96014.22
2023-04-29T05:04:49.745Z,96007.88
2023-04-29T05:07:18.018Z,96017.44
2023-04-29T05:09:46.266Z,96014.66
2023-04-29T05:12:14.513Z,96011.16
2023-04-29T05:14:42.775Z,96005.78
2023-04-29T05:17:11.376Z,96012.03
2023-04-29T05:19:39.632Z,96015.63
2023-04-29T05:22:09.217Z,96026.88
2023-04-29T05:24:37.469Z,96024.25
2023-04-29T05:27:05.752Z,96032.88
2023-04-29T05:29:34.009Z,96031.31
2023-04-29T05:32:02.402Z,96029.09
2023-04-29T05:34:30.962Z,96040.09
2023-04-29T05:36:59.230Z,96037.66
2023-04-29T05:39:28.849Z,96036.94
2023-04-29T05:41:57.075Z,96049.81
2023-04-29T05:44:25.401Z,96051.00
2023-04-29T05:46:53.599Z,96054.47
2023-04-29T05:49:21.874Z,96051.59
2023-04-29T05:51:50.081Z,96053.84
2023-04-29T05:54:18.331Z,96056.69
2023-04-29T05:56:48.014Z,96064.56
2023-04-29T05:59:16.267Z,96067.94
2023-04-29T06:01:44.492Z,96070.94
2023-04-29T06:04:13.059Z,96068.25
2023-04-29T06:06:41.803Z,96067.25
2023-04-29T06:09:19.912Z,96071.56
2023-04-29T06:11:56.539Z,96070.88
2023-04-29T06:14:25.023Z,96071.28
2023-04-29T06:16:53.791Z,96081.25
2023-04-29T06:19:22.219Z,96083.28
2023-04-29T06:21:50.496Z,96085.38
2023-04-29T06:24:18.771Z,96084.34
2023-04-29T06:26:47.053Z,96088.63
2023-04-29T06:29:16.653Z,96089.78
2023-04-29T06:31:44.948Z,96088.56
2023-04-29T06:34:13.856Z,96099.22
2023-04-29T06:36:42.164Z,96093.53
2023-04-29T06:39:10.633Z,96102.78
2023-04-29T06:41:40.998Z,96099.50
2023-04-29T06:44:09.240Z,96102.59
2023-04-29T06:46:39.294Z,96097.22
2023-04-29T06:49:07.831Z,96099.63
2023-04-29T06:51:37.023Z,96106.13
2023-04-29T06:54:05.499Z,96117.03
2023-04-29T06:56:33.785Z,96104.00
2023-04-29T06:59:02.051Z,96108.09
2023-04-29T07:01:30.320Z,96109.38
2023-04-29T07:04:00.250Z,96106.72
2023-04-29T07:06:28.719Z,96113.06
2023-04-29T07:08:57.194Z,96109.94
2023-04-29T07:11:26.937Z,96105.25
2023-04-29T07:13:55.303Z,96109.31
2023-04-29T07:16:26.565Z,96117.97
2023-04-29T07:18:55.027Z,96114.31
2023-04-29T07:21:24.770Z,96113.72
2023-04-29T07:23:53.714Z,96115.72
2023-04-29T07:26:22.045Z,96121.69
2023-04-29T07:28:50.373Z,96118.44
2023-04-29T07:31:18.602Z,96111.69
2023-04-29T07:33:47.480Z,96116.22
2023-04-29T07:36:15.773Z,96115.47
2023-04-29T07:38:45.418Z,96105.59
2023-04-29T07:41:13.916Z,96115.03
2023-04-29T07:43:42.593Z,96116.59
2023-04-29T07:46:11.011Z,96112.81
2023-04-29T07:48:40.124Z,96115.31
2023-04-29T07:51:08.902Z,96108.81
2023-04-29T07:53:37.205Z,96121.44
2023-04-29T07:56:08.685Z,96118.47
2023-04-29T07:58:37.098Z,96120.66
2023-04-29T08:01:09.236Z,96120.03
2023-04-29T08:03:40.525Z,96127.66
2023-04-29T08:06:09.742Z,96127.25
2023-04-29T08:08:38.079Z,96121.75
2023-04-29T08:11:07.878Z,96122.66
2023-04-29T08:13:36.093Z,96107.25
2023-04-29T08:16:04.504Z,96115.25
2023-04-29T08:18:32.754Z,96118.16
2023-04-29T08:21:01.007Z,96111.16
2023-04-29T08:23:29.417Z,96117.09
2023-04-29T08:25:57.694Z,96113.38
2023-04-29T08:28:27.697Z,96113.72
2023-04-29T08:30:56.663Z,96115.50
2023-04-29T08:33:25.060Z,96112.66
2023-04-29T08:36:00.148Z,96115.13
2023-04-29T08:38:28.514Z,96108.06
2023-04-29T08:40:56.929Z,96110.47
2023-04-29T08:43:25.228Z,96108.13
2023-04-29T08:45:55.063Z,96112.47
2023-04-29T08:48:23.438Z,96114.91
2023-04-29T08:50:51.920Z,96112.72
2023-04-29T08:53:20.296Z,96115.00
2023-04-29T08:55:49.428Z,96114.03
2023-04-29T08:58:17.725Z,96125.06
2023-04-29T09:00:46.288Z,96111.50
2023-04-29T09:03:21.665Z,96129.78
2023-04-29T09:05:51.458Z,96105.66
2023-04-29T09:08:21.201Z,96121.28
2023-04-29T09:10:49.622Z,96101.72
2023-04-29T09:13:25.408Z,96111.06
2023-04-29T09:15:54.043Z,96119.09
2023-04-29T09:18:45.888Z,96109.50
2023-04-29T09:21:15.480Z,96112.78
2023-04-29T09:23:43.806Z,96107.16
2023-04-29T09:26:12.071Z,96103.81
2023-04-29T09:28:43.640Z,96108.34
2023-04-29T09:31:12.976Z,96114.31
2023-04-29T09:33:55.962Z,96104.56
2023-04-29T09:36:41.762Z,96104.28
2023-04-29T09:39:12.590Z,96097.28
2023-04-29T09:41:43.280Z,96081.44
2023-04-29T09:44:11.794Z,96092.72
2023-04-29T09:46:40.307Z,96095.13
2023-04-29T09:49:26.120Z,96104.72
2023-04-29T09:51:56.234Z,96119.28
2023-04-29T09:54:25.752Z,96114.88
2023-04-29T09:56:54.474Z,96119.44
2023-04-29T09:59:23.640Z,96130.97
2023-04-29T10:01:54.745Z,96115.75
2023-04-29T10:04:25.833Z,96118.63
2023-04-29T10:06:55.332Z,96114.53
2023-04-29T10:09:24.851Z,96120.09
2023-04-29T10:11:53.981Z,96124.47
2023-04-29T10:14:24.337Z,96122.72
2023-04-29T10:17:00.176Z,96119.19
2023-04-29T10:19:35.423Z,96109.13
2023-04-29T10:22:09.226Z,96109.94
2023-04-29T10:24:38.998Z,96110.25
2023-04-29T10:27:08.845Z,96095.66
2023-04-29T10:29:38.767Z,96104.56
2023-04-29T10:32:10.930Z,96105.22
2023-04-29T10:34:40.702Z,96100.31
2023-04-29T10:37:10.011Z,96107.13
2023-04-29T10:39:44.084Z,96118.16
2023-04-29T10:42:18.603Z,96114.31
2023-04-29T10:45:32.832Z,96105.00
2023-04-29T10:48:18.948Z,96104.84
2023-04-29T10:51:04.387Z,96089.53
2023-04-29T10:53:32.988Z,96100.97
2023-04-29T10:56:09.616Z,96091.66
2023-04-29T10:58:45.476Z,96078.53
2023-04-29T11:01:15.848Z,96099.00
2023-04-29T11:03:54.880Z,96094.22
2023-04-29T11:06:26.650Z,96095.09
2023-04-29T11:09:03.097Z,96096.38
2023-04-29T11:12:03.474Z,96085.59
2023-04-29T11:14:32.822Z,96094.47
2023-04-29T11:17:02.812Z,96096.41
2023-04-29T11:19:34.996Z,96102.50
2023-04-29T11:22:17.755Z,96088.94
2023-04-29T11:24:57.336Z,96090.47
2023-04-29T11:27:27.305Z,96078.19
2023-04-29T11:29:59.532Z,96086.31
2023-04-29T11:32:28.787Z,96087.59
2023-04-29T11:34:57.440Z,96102.50
2023-04-29T11:37:27.908Z,96086.69
2023-04-29T11:40:00.212Z,96080.75
2023-04-29T11:42:28.661Z,96083.50
2023-04-29T11:44:59.446Z,96094.22
2023-04-29T11:47:29.541Z,96099.28
2023-04-29T11:50:05.629Z,96102.34
2023-04-29T11:52:37.276Z,96090.53
2023-04-29T11:55:06.584Z,96107.44
2023-04-29T11:57:34.852Z,96103.75
2023-04-29T12:00:03.339Z,96095.78
2023-04-29T12:02:32.769Z,96097.06
2023-04-29T12:05:02.611Z,96106.84
2023-04-29T12:07:31.319Z,96111.41
2023-04-29T12:10:01.133Z,96100.09
2023-04-29T12:12:31.531Z,96106.25
2023-04-29T12:14:59.650Z,96099.59
2023-04-29T12:17:28.036Z,96099.72
2023-04-29T12:19:56.540Z,96108.56
2023-04-29T12:22:24.803Z,96095.19
2023-04-29T12:24:54.716Z,96108.31
2023-04-29T12:27:25.138Z,96101.19
2023-04-29T12:29:53.880Z,96105.75
2023-04-29T12:32:24.880Z,96106.31
2023-04-29T12:34:53.969Z,96106.75
2023-04-29T12:37:23.645Z,96092.25
2023-04-29T12:39:52.926Z,96113.84
2023-04-29T12:42:21.174Z,96114.53
2023-04-29T12:44:50.774Z,96118.63
2023-04-29T12:47:19.090Z,96119.69
2023-04-29T12:49:49.201Z,96118.38
2023-04-29T12:52:17.547Z,96108.44
2023-04-29T12:54:45.802Z,96101.38
2023-04-29T12:57:14.410Z,96100.47
2023-04-29T12:59:42.738Z,96114.75
2023-04-29T13:02:12.563Z,96117.56
2023-04-29T13:04:41.153Z,96125.41
2023-04-29T13:07:13.136Z,96115.63
2023-04-29T13:09:41.864Z,96109.72
2023-04-29T13:12:10.257Z,96116.38
2023-04-29T13:14:38.510Z,96107.38
2023-04-29T13:17:06.937Z,96113.94
2023-04-29T13:19:50.709Z,96117.22
2023-04-29T13:22:20.295Z,96106.84
2023-04-29T13:24:48.606Z,96115.13
2023-04-29T13:27:16.995Z,96125.16
2023-04-29T13:29:45.203Z,96114.09
2023-04-29T13:32:13.618Z,96109.94
2023-04-29T13:34:45.211Z,96102.19
2023-04-29T13:37:13.561Z,96110.06
2023-04-29T13:39:45.776Z,96114.94
2023-04-29T13:42:15.963Z,96106.25
2023-04-29T13:44:59.991Z,96113.84
2023-04-29T13:47:30.418Z,96124.91
2023-04-29T13:55:49.985Z,96127.97
2023-04-29T14:01:01.387Z,96117.03
2023-04-29T14:03:12.882Z,96126.81
2023-04-29T14:05:43.137Z,96120.00
2023-04-29T14:08:11.438Z,96119.72
2023-04-29T14:10:39.609Z,96117.63
2023-04-29T14:13:07.973Z,96130.47
2023-04-29T14:15:36.313Z,96122.09
2023-04-29T14:18:04.677Z,96129.59
2023-04-29T14:20:32.932Z,96128.69
2023-04-29T14:23:02.594Z,96135.38
2023-04-29T14:25:31.672Z,96138.53
2023-04-29T14:28:02.061Z,96140.56
2023-04-29T14:30:30.468Z,96139.06
2023-04-29T14:32:58.878Z,96150.78
2023-04-29T14:35:27.208Z,96135.78
2023-04-29T14:37:55.506Z,96148.75
2023-04-29T14:40:25.664Z,96145.09
2023-04-29T14:42:53.940Z,96145.88
2023-04-29T14:45:22.182Z,96144.31
2023-04-29T14:47:50.499Z,96144.47
2023-04-29T14:50:18.838Z,96139.19
2023-04-29T14:52:47.048Z,96155.81
2023-04-29T14:55:15.662Z,96152.81
2023-04-29T14:57:45.294Z,96153.38
2023-04-29T15:00:15.084Z,96158.41
2023-04-29T15:02:43.526Z,96154.25
2023-04-29T15:05:11.989Z,96158.09
2023-04-29T15:07:40.320Z,96156.13
2023-04-29T15:10:10.041Z,96162.28
2023-04-29T15:12:38.356Z,96156.88
2023-04-29T15:15:09.935Z,96163.63
2023-04-29T15:17:38.289Z,96180.03
2023-04-29T15:20:08.369Z,96179.41
2023-04-29T15:22:36.956Z,96182.03
2023-04-29T15:25:05.913Z,96183.94
2023-04-29T15:27:34.862Z,96178.28
2023-04-29T15:30:03.165Z,96176.38
2023-04-29T15:32:32.872Z,96179.53
2023-04-29T15:35:01.565Z,96185.25
2023-04-29T15:37:30.658Z,96178.66
2023-04-29T15:40:00.424Z,96186.69
2023-04-29T15:42:29.174Z,96195.63
2023-04-29T15:44:57.712Z,96196.81
2023-04-29T15:47:26.084Z,96208.97
2023-04-29T15:49:56.685Z,96208.41
2023-04-29T15:52:25.079Z,96211.38
2023-04-29T15:54:53.357Z,96215.63
2023-04-29T15:57:21.668Z,96228.28
2023-04-29T15:59:49.900Z,96214.75
2023-04-29T16:02:20.365Z,96217.72
2023-04-29T16:04:48.467Z,96218.84
2023-04-29T16:07:18.228Z,96214.38
2023-04-29T16:09:46.616Z,96224.31
2023-04-29T16:12:14.906Z,96219.81
2023-04-29T16:14:43.206Z,96219.91
2023-04-29T16:17:11.691Z,96223.50
2023-04-29T16:19:40.306Z,96225.38
2023-04-29T16:22:08.533Z,96231.84
2023-04-29T16:24:38.296Z,96238.28
2023-04-29T16:27:06.739Z,96233.84
2023-04-29T16:29:35.135Z,96246.97
2023-04-29T16:32:03.937Z,96239.47
2023-04-29T16:34:32.252Z,96234.19
2023-04-29T16:37:00.583Z,96253.16
2023-04-29T16:39:29.020Z,96252.09
2023-04-29T16:41:59.532Z,96246.34
2023-04-29T16:44:27.891Z,96249.59
2023-04-29T16:46:56.844Z,96260.41
2023-04-29T16:49:26.690Z,96258.84
2023-04-29T16:51:55.410Z,96264.28
2023-04-29T16:54:23.837Z,96271.88
2023-04-29T16:56:52.205Z,96270.38
2023-04-29T16:59:21.904Z,96271.44
2023-04-29T17:01:50.325Z,96270.03
2023-04-29T17:04:20.050Z,96280.84
2023-04-29T17:06:48.732Z,96276.66
2023-04-29T17:09:17.791Z,96281.00
2023-04-29T17:11:46.239Z,96283.00
2023-04-29T17:14:15.097Z,96283.88
2023-04-29T17:16:44.743Z,96287.13
2023-04-29T17:19:12.977Z,96287.78
2023-04-29T17:21:41.617Z,96292.19
2023-04-29T17:24:09.937Z,96289.25
2023-04-29T17:26:38.220Z,96289.94
2023-04-29T17:29:06.498Z,96289.22
2023-04-29T17:31:45.117Z,96294.97
2023-04-29T17:34:19.711Z,96291.69
2023-04-29T17:36:48.203Z,96304.22
2023-04-29T17:39:16.580Z,96301.47
2023-04-29T17:41:45.633Z,96303.78
2023-04-29T17:44:13.928Z,96306.59
2023-04-29T17:46:42.693Z,96312.22
2023-04-29T17:49:11.492Z,96316.09
2023-04-29T17:51:41.180Z,96328.59
2023-04-29T17:54:10.295Z,96327.56
2023-04-29T17:56:38.649Z,96330.50
2023-04-29T17:59:08.006Z,96331.47
2023-04-29T18:01:37.147Z,96331.91
2023-04-29T18:04:06.059Z,96338.34
2023-04-29T18:06:34.962Z,96341.00
2023-04-29T18:09:05.308Z,96349.03
2023-04-29T18:11:33.462Z,96360.88
2023-04-29T18:14:01.641Z,96349.63
2023-04-29T18:16:29.852Z,96357.94
2023-04-29T18:18:58.148Z,96356.69
2023-04-29T18:21:27.378Z,96359.03
2023-04-29T18:23:56.021Z,96363.06
2023-04-29T18:26:25.645Z,96353.03
2023-04-29T18:28:53.899Z,96358.53
2023-04-29T18:31:23.388Z,96362.03
2023-04-29T18:33:51.790Z,96364.03
2023-04-29T18:36:21.329Z,96361.19
2023-04-29T18:38:49.727Z,96360.75
2023-04-29T18:41:18.067Z,96364.22
2023-04-29T18:43:47.699Z,96367.34
2023-04-29T18:46:16.454Z,96372.72
2023-04-29T18:48:44.765Z,96381.81
2023-04-29T18:51:13.019Z,96372.09
2023-04-29T18:53:41.380Z,96371.19
2023-04-29T18:56:09.640Z,96377.41
2023-04-29T18:58:37.863Z,96387.84
2023-04-29T19:01:07.688Z,96394.09
2023-04-29T19:03:35.977Z,96382.78
2023-04-29T19:06:04.391Z,96393.06
2023-04-29T19:08:32.698Z,96401.53
2023-04-29T19:11:01.494Z,96406.31
2023-04-29T19:13:29.749Z,96396.59
2023-04-29T19:15:58.042Z,96398.66
2023-04-29T19:18:28.014Z,96392.69
2023-04-29T19:20:56.728Z,96398.41
2023-04-29T19:23:24.975Z,96404.72
2023-04-29T19:25:53.203Z,96405.56
2023-04-29T19:28:21.518Z,96402.41
2023-04-29T19:30:49.777Z,96405.50
2023-04-29T19:33:18.058Z,96408.34
2023-04-29T19:35:47.705Z,96406.84
2023-04-29T19:38:16.004Z,96409.34
2023-04-29T19:40:45.597Z,96413.75
2023-04-29T19:43:13.934Z,96419.59
2023-04-29T19:45:42.258Z,96412.69
2023-04-29T19:48:10.734Z,96419.41
2023-04-29T19:50:39.840Z,96418.50
2023-04-29T19:53:09.494Z,96423.16
2023-04-29T19:55:39.058Z,96430.22
2023-04-29T19:58:07.582Z,96425.47
2023-04-29T20:00:36.370Z,96424.88
2023-04-29T20:03:04.960Z,96435.19
2023-04-29T20:05:33.845Z,96426.41
2023-04-29T20:08:02.105Z,96431.78
2023-04-29T20:10:31.960Z,96432.88
2023-04-29T20:13:01.076Z,96431.19
2023-04-29T20:15:29.341Z,96433.31
2023-04-29T20:17:58.224Z,96439.09
2023-04-29T20:20:26.738Z,96437.28
2023-04-29T20:22:58.120Z,96436.81
2023-04-29T20:25:27.109Z,96444.44
2023-04-29T20:27:57.489Z,96440.56
2023-04-29T20:30:26.971Z,96444.53
2023-04-29T20:32:55.377Z,96438.72
2023-04-29T20:35:24.565Z,96442.81
2023-04-29T20:37:52.781Z,96440.75
2023-04-29T20:40:21.218Z,96445.56
2023-04-29T20:42:49.491Z,96442.84
2023-04-29T20:45:19.168Z,96439.38
2023-04-29T20:47:47.508Z,96440.75
2023-04-29T20:50:16.113Z,96438.41
2023-04-29T20:52:44.404Z,96447.09
2023-04-29T20:55:12.634Z,96451.09
2023-04-29T20:57:40.927Z,96452.03
2023-04-29T21:00:10.425Z,96442.06
2023-04-29T21:02:40.183Z,96448.47
2023-04-29T21:05:10.215Z,96445.78
2023-04-29T21:07:38.628Z,96452.88
2023-04-29T21:10:07.453Z,96458.56
2023-04-29T21:12:35.846Z,96465.19
2023-04-29T21:15:04.435Z,96465.22
2023-04-29T21:17:32.799Z,96467.34
2023-04-29T21:20:02.404Z,96464.44
2023-04-29T21:22:30.696Z,96468.97
2023-04-29T21:24:58.965Z,96469.69
2023-04-29T21:27:27.195Z,96460.66
2023-04-29T21:29:55.842Z,96472.47
2023-04-29T21:32:24.491Z,96473.38
2023-04-29T21:34:52.824Z,96476.69
2023-04-29T21:37:22.478Z,96481.75
2023-04-29T21:39:51.424Z,96475.72
2023-04-29T21:42:23.154Z,96475.22
2023-04-29T21:44:51.483Z,96475.47
2023-04-29T21:47:19.812Z,96472.94
2023-04-29T21:49:48.284Z,96480.13
2023-04-29T21:52:16.557Z,96481.22
2023-04-29T21:54:46.262Z,96467.66
2023-04-29T21:57:14.495Z,96464.59
2023-04-29T21:59:42.723Z,96468.03
2023-04-29T22:02:22.088Z,96466.50
2023-04-29T22:04:51.371Z,96467.53
2023-04-29T22:07:20.301Z,96478.88
2023-04-29T22:09:50.541Z,96468.06
2023-04-29T22:12:18.977Z,96476.38
2023-04-29T22:14:47.285Z,96477.69
2023-04-29T22:17:15.729Z,96476.34
2023-04-29T22:19:44.037Z,96478.88
2023-04-29T22:22:12.265Z,96483.69
2023-04-29T22:24:40.526Z,96488.47
2023-04-29T22:27:10.101Z,96483.97
2023-04-29T22:29:38.368Z,96488.25
2023-04-29T22:32:06.676Z,96485.91
2023-04-29T22:34:34.944Z,96492.56
2023-04-29T22:37:03.194Z,96490.13
2023-04-29T22:39:31.444Z,96493.22
2023-04-29T22:41:59.710Z,96490.69
2023-04-29T22:44:29.326Z,96482.03
2023-04-29T22:46:57.935Z,96493.44
2023-04-29T22:49:26.253Z,96493.00
2023-04-29T22:51:54.479Z,96496.09
2023-04-29T22:54:22.726Z,96494.53
2023-04-29T22:56:51.007Z,96504.06
2023-04-29T22:59:19.249Z,96501.94
2023-04-29T23:01:48.814Z,96494.22
2023-04-29T23:04:17.137Z,96503.16
2023-04-29T23:06:45.492Z,96502.91
2023-04-29T23:09:13.826Z,96500.97
2023-04-29T23:11:42.188Z,96492.47
2023-04-29T23:14:10.650Z,96492.91
2023-04-29T23:16:38.950Z,96491.16
2023-04-29T23:19:08.725Z,96494.22
2023-04-29T23:21:37.007Z,96498.69
2023-04-29T23:24:05.938Z,96497.34
2023-04-29T23:26:34.145Z,96493.78
2023-04-29T23:29:02.376Z,96495.97
2023-04-29T23:31:30.632Z,96497.59
2023-04-29T23:34:00.304Z,96492.03
2023-04-29T23:36:29.973Z,96478.94
2023-04-29T23:38:58.231Z,96488.13
2023-04-29T23:41:26.475Z,96492.72
2023-04-29T23:43:54.856Z,96487.94
2023-04-29T23:46:23.164Z,96491.59
2023-04-29T23:48:51.413Z,96494.34
2023-04-29T23:51:19.634Z,96490.38
2023-04-29T23:53:49.249Z,96485.38
2023-04-29T23:56:17.515Z,96477.16
2023-04-29T23:58:46.044Z,96477.78
